sensor_id;sensor_type;location;lat;lon;timestamp;pressure;altitude;pressure_sealevel;temperature;humidity
4024;BME280;2026;51.002;13.668;2022-07-05T00:00:34;99370.34;;;17.68;55.25
4024;BME280;2026;51.002;13.668;2022-07-05T00:05:37;99367.66;;;17.63;55.38
4024;BME280;2026;51.002;13.668;2022-07-05T00:10:40;99364.94;;;17.32;56.77
4024;BME280;2026;51.002;13.668;2022-07-05T00:15:45;99361.22;;;17.33;56.46
4024;BME280;2026;51.002;13.668;2022-07-05T00:20:48;99365.50;;;17.39;56.17
4024;BME280;2026;51.002;13.668;2022-07-05T00:25:51;99357.94;;;17.05;57.35
4024;BME280;2026;51.002;13.668;2022-07-05T00:30:56;99354.28;;;17.27;57.25
4024;BME280;2026;51.002;13.668;2022-07-05T00:35:59;99352.94;;;17.24;56.85
4024;BME280;2026;51.002;13.668;2022-07-05T00:41:02;99358.00;;;17.15;57.64
4024;BME280;2026;51.002;13.668;2022-07-05T00:46:06;99358.53;;;17.17;57.32
4024;BME280;2026;51.002;13.668;2022-07-05T00:51:10;99355.59;;;17.19;57.59
4024;BME280;2026;51.002;13.668;2022-07-05T00:56:14;99357.91;;;17.00;58.00
4024;BME280;2026;51.002;13.668;2022-07-05T01:01:18;99352.00;;;16.87;58.62
4024;BME280;2026;51.002;13.668;2022-07-05T01:06:23;99354.66;;;16.87;59.09
4024;BME280;2026;51.002;13.668;2022-07-05T01:11:26;99350.16;;;16.88;58.77
4024;BME280;2026;51.002;13.668;2022-07-05T01:16:32;99346.66;;;16.77;59.22
4024;BME280;2026;51.002;13.668;2022-07-05T01:21:38;99349.03;;;16.73;59.39
4024;BME280;2026;51.002;13.668;2022-07-05T01:26:45;99352.38;;;16.58;59.92
4024;BME280;2026;51.002;13.668;2022-07-05T01:31:48;99348.38;;;16.50;59.89
4024;BME280;2026;51.002;13.668;2022-07-05T01:36:51;99353.16;;;16.53;59.89
4024;BME280;2026;51.002;13.668;2022-07-05T01:41:55;99344.84;;;16.39;60.24
4024;BME280;2026;51.002;13.668;2022-07-05T01:47:04;99357.00;;;16.30;60.29
4024;BME280;2026;51.002;13.668;2022-07-05T01:52:10;99364.16;;;16.30;60.01
4024;BME280;2026;51.002;13.668;2022-07-05T01:57:16;99361.22;;;16.26;60.55
4024;BME280;2026;51.002;13.668;2022-07-05T02:02:20;99356.56;;;16.06;60.52
4024;BME280;2026;51.002;13.668;2022-07-05T02:07:23;99359.47;;;16.04;60.96
4024;BME280;2026;51.002;13.668;2022-07-05T02:12:27;99347.94;;;15.93;60.62
4024;BME280;2026;51.002;13.668;2022-07-05T02:17:31;99355.56;;;15.84;60.87
4024;BME280;2026;51.002;13.668;2022-07-05T02:22:35;99350.19;;;15.74;60.81
4024;BME280;2026;51.002;13.668;2022-07-05T02:27:39;99351.97;;;15.68;60.99
4024;BME280;2026;51.002;13.668;2022-07-05T02:32:43;99353.22;;;15.61;61.36
4024;BME280;2026;51.002;13.668;2022-07-05T02:37:46;99346.28;;;15.54;61.08
4024;BME280;2026;51.002;13.668;2022-07-05T02:42:51;99344.69;;;15.53;61.08
4024;BME280;2026;51.002;13.668;2022-07-05T02:47:54;99345.13;;;15.45;61.66
4024;BME280;2026;51.002;13.668;2022-07-05T02:52:58;99341.25;;;15.30;61.82
4024;BME280;2026;51.002;13.668;2022-07-05T02:58:03;99343.38;;;15.28;62.21
4024;BME280;2026;51.002;13.668;2022-07-05T03:03:06;99358.28;;;15.35;61.96
4024;BME280;2026;51.002;13.668;2022-07-05T03:08:10;99363.97;;;15.21;62.72
4024;BME280;2026;51.002;13.668;2022-07-05T03:13:17;99371.53;;;15.12;62.85
4024;BME280;2026;51.002;13.668;2022-07-05T03:18:20;99377.84;;;14.89;63.68
4024;BME280;2026;51.002;13.668;2022-07-05T03:23:23;99358.56;;;15.11;62.82
4024;BME280;2026;51.002;13.668;2022-07-05T03:28:32;99381.66;;;15.15;63.21
4024;BME280;2026;51.002;13.668;2022-07-05T03:33:35;99384.09;;;15.22;63.09
4024;BME280;2026;51.002;13.668;2022-07-05T03:38:42;99383.19;;;15.34;62.94
4024;BME280;2026;51.002;13.668;2022-07-05T03:43:47;99384.06;;;15.44;62.69
4024;BME280;2026;51.002;13.668;2022-07-05T03:48:50;99378.56;;;15.24;63.16
4024;BME280;2026;51.002;13.668;2022-07-05T03:53:55;99384.06;;;15.44;62.69
4024;BME280;2026;51.002;13.668;2022-07-05T03:59:00;99391.09;;;15.83;62.04
4024;BME280;2026;51.002;13.668;2022-07-05T04:04:05;99386.31;;;15.80;61.97
4024;BME280;2026;51.002;13.668;2022-07-05T04:09:08;99389.63;;;16.68;59.31
4024;BME280;2026;51.002;13.668;2022-07-05T04:14:14;99401.56;;;16.66;58.98
4024;BME280;2026;51.002;13.668;2022-07-05T04:19:17;99401.00;;;16.21;60.37
4024;BME280;2026;51.002;13.668;2022-07-05T04:24:20;99407.78;;;16.44;59.63
4024;BME280;2026;51.002;13.668;2022-07-05T04:29:25;99411.47;;;16.38;60.49
4024;BME280;2026;51.002;13.668;2022-07-05T04:34:29;99413.50;;;16.63;59.55
4024;BME280;2026;51.002;13.668;2022-07-05T04:39:32;99408.91;;;17.71;56.40
4024;BME280;2026;51.002;13.668;2022-07-05T04:44:42;99414.41;;;17.38;56.71
4024;BME280;2026;51.002;13.668;2022-07-05T04:49:47;99420.69;;;17.06;58.27
4024;BME280;2026;51.002;13.668;2022-07-05T04:54:50;99428.00;;;16.93;58.67
4024;BME280;2026;51.002;13.668;2022-07-05T04:59:54;99436.25;;;17.50;58.00
4024;BME280;2026;51.002;13.668;2022-07-05T05:04:57;99434.75;;;17.96;55.70
4024;BME280;2026;51.002;13.668;2022-07-05T05:10:00;99434.81;;;18.17;55.78
4024;BME280;2026;51.002;13.668;2022-07-05T05:15:06;99438.00;;;18.19;56.00
4024;BME280;2026;51.002;13.668;2022-07-05T05:20:12;99435.53;;;18.85;54.31
4024;BME280;2026;51.002;13.668;2022-07-05T05:25:16;99436.66;;;19.45;52.48
4024;BME280;2026;51.002;13.668;2022-07-05T05:30:20;99427.22;;;20.08;51.28
4024;BME280;2026;51.002;13.668;2022-07-05T05:35:23;99431.31;;;20.00;49.16
4024;BME280;2026;51.002;13.668;2022-07-05T05:40:26;99422.72;;;20.92;46.89
4024;BME280;2026;51.002;13.668;2022-07-05T05:45:31;99420.38;;;22.25;45.30
4024;BME280;2026;51.002;13.668;2022-07-05T05:50:35;99412.25;;;22.91;41.45
4024;BME280;2026;51.002;13.668;2022-07-05T05:55:39;99424.16;;;23.27;40.41
4024;BME280;2026;51.002;13.668;2022-07-05T06:00:44;99432.84;;;23.47;41.54
4024;BME280;2026;51.002;13.668;2022-07-05T06:05:50;99436.06;;;24.09;40.55
4024;BME280;2026;51.002;13.668;2022-07-05T06:10:53;99437.13;;;24.30;38.26
4024;BME280;2026;51.002;13.668;2022-07-05T06:16:07;99437.75;;;24.27;39.22
4024;BME280;2026;51.002;13.668;2022-07-05T06:21:10;99426.00;;;24.86;37.15
4024;BME280;2026;51.002;13.668;2022-07-05T06:26:13;99440.06;;;24.83;37.53
4024;BME280;2026;51.002;13.668;2022-07-05T06:31:17;99446.09;;;24.26;37.98
4024;BME280;2026;51.002;13.668;2022-07-05T06:36:20;99450.09;;;22.76;38.00
4024;BME280;2026;51.002;13.668;2022-07-05T06:41:23;99449.47;;;23.35;37.98
4024;BME280;2026;51.002;13.668;2022-07-05T06:46:28;99448.09;;;24.66;36.51
4024;BME280;2026;51.002;13.668;2022-07-05T06:51:31;99447.56;;;25.53;36.11
4024;BME280;2026;51.002;13.668;2022-07-05T06:56:34;99447.72;;;26.01;33.97
4024;BME280;2026;51.002;13.668;2022-07-05T07:01:58;99456.78;;;24.40;35.04
4024;BME280;2026;51.002;13.668;2022-07-05T07:07:21;99447.75;;;24.58;35.84
4024;BME280;2026;51.002;13.668;2022-07-05T07:12:41;99449.00;;;23.70;36.68
4024;BME280;2026;51.002;13.668;2022-07-05T07:17:46;99450.25;;;24.55;34.54
4024;BME280;2026;51.002;13.668;2022-07-05T07:22:49;99457.91;;;23.93;35.93
4024;BME280;2026;51.002;13.668;2022-07-05T07:27:53;99451.84;;;23.50;35.37
4024;BME280;2026;51.002;13.668;2022-07-05T07:32:58;99451.75;;;24.47;34.20
4024;BME280;2026;51.002;13.668;2022-07-05T07:38:01;99443.13;;;23.82;34.21
4024;BME280;2026;51.002;13.668;2022-07-05T07:43:04;99439.69;;;25.17;34.01
4024;BME280;2026;51.002;13.668;2022-07-05T07:48:12;99433.09;;;27.06;31.28
4024;BME280;2026;51.002;13.668;2022-07-05T07:53:15;99437.50;;;27.41;30.28
4024;BME280;2026;51.002;13.668;2022-07-05T07:58:18;99447.84;;;24.53;31.75
4024;BME280;2026;51.002;13.668;2022-07-05T08:03:23;99442.44;;;23.39;33.79
4024;BME280;2026;51.002;13.668;2022-07-05T08:08:26;99453.44;;;23.88;32.83
4024;BME280;2026;51.002;13.668;2022-07-05T08:13:29;99441.97;;;25.23;31.59
4024;BME280;2026;51.002;13.668;2022-07-05T08:18:33;99448.19;;;23.46;33.12
4024;BME280;2026;51.002;13.668;2022-07-05T08:23:54;99439.72;;;24.76;30.99
4024;BME280;2026;51.002;13.668;2022-07-05T08:28:57;99443.72;;;23.78;32.05
4024;BME280;2026;51.002;13.668;2022-07-05T08:34:10;99439.06;;;25.20;30.12
4024;BME280;2026;51.002;13.668;2022-07-05T08:39:14;99436.56;;;25.32;29.10
4024;BME280;2026;51.002;13.668;2022-07-05T08:44:18;99438.31;;;25.37;29.58
4024;BME280;2026;51.002;13.668;2022-07-05T08:49:24;99442.44;;;26.22;27.86
4024;BME280;2026;51.002;13.668;2022-07-05T08:54:28;99441.78;;;24.16;29.45
4024;BME280;2026;51.002;13.668;2022-07-05T08:59:31;99437.75;;;24.59;30.07
4024;BME280;2026;51.002;13.668;2022-07-05T09:04:42;99439.22;;;24.42;29.17
4024;BME280;2026;51.002;13.668;2022-07-05T09:09:47;99423.88;;;24.66;30.12
4024;BME280;2026;51.002;13.668;2022-07-05T09:14:54;99431.19;;;24.74;31.36
4024;BME280;2026;51.002;13.668;2022-07-05T09:20:06;99433.91;;;23.97;30.32
4024;BME280;2026;51.002;13.668;2022-07-05T09:25:17;99419.44;;;26.73;29.40
4024;BME280;2026;51.002;13.668;2022-07-05T09:30:29;99416.63;;;26.04;28.38
4024;BME280;2026;51.002;13.668;2022-07-05T09:35:34;99424.84;;;24.70;29.53
4024;BME280;2026;51.002;13.668;2022-07-05T09:40:45;99409.34;;;25.78;28.29
4024;BME280;2026;51.002;13.668;2022-07-05T09:45:50;99416.09;;;26.19;27.81
4024;BME280;2026;51.002;13.668;2022-07-05T09:51:05;99417.56;;;26.08;26.72
4024;BME280;2026;51.002;13.668;2022-07-05T09:56:29;99420.22;;;24.62;29.03
4024;BME280;2026;51.002;13.668;2022-07-05T10:01:33;99429.72;;;23.03;31.58
4024;BME280;2026;51.002;13.668;2022-07-05T10:06:39;99423.53;;;24.58;29.96
4024;BME280;2026;51.002;13.668;2022-07-05T10:11:45;99405.44;;;27.10;26.15
4024;BME280;2026;51.002;13.668;2022-07-05T10:16:54;99432.97;;;25.90;27.72
4024;BME280;2026;51.002;13.668;2022-07-05T10:22:01;99430.78;;;23.81;30.71
4024;BME280;2026;51.002;13.668;2022-07-05T10:27:22;99430.19;;;25.10;28.48
4024;BME280;2026;51.002;13.668;2022-07-05T10:32:28;99420.53;;;26.33;27.69
4024;BME280;2026;51.002;13.668;2022-07-05T10:37:33;99417.91;;;26.54;27.21
4024;BME280;2026;51.002;13.668;2022-07-05T10:42:39;99406.84;;;27.58;26.88
4024;BME280;2026;51.002;13.668;2022-07-05T10:48:13;99412.75;;;28.65;25.55
4024;BME280;2026;51.002;13.668;2022-07-05T10:53:19;99418.13;;;24.99;28.21
4024;BME280;2026;51.002;13.668;2022-07-05T10:58:27;99427.31;;;24.98;28.71
4024;BME280;2026;51.002;13.668;2022-07-05T11:03:35;99418.28;;;23.99;29.69
4024;BME280;2026;51.002;13.668;2022-07-05T11:09:17;99410.28;;;25.64;29.69
4024;BME280;2026;51.002;13.668;2022-07-05T11:14:31;99415.69;;;26.00;28.45
4024;BME280;2026;51.002;13.668;2022-07-05T11:19:35;99415.03;;;26.98;26.72
4024;BME280;2026;51.002;13.668;2022-07-05T11:25:00;99405.06;;;26.03;25.83
4024;BME280;2026;51.002;13.668;2022-07-05T11:30:21;99419.50;;;25.28;28.35
4024;BME280;2026;51.002;13.668;2022-07-05T11:35:31;99431.69;;;25.43;28.22
4024;BME280;2026;51.002;13.668;2022-07-05T11:40:37;99418.88;;;24.18;29.40
4024;BME280;2026;51.002;13.668;2022-07-05T11:45:40;99413.91;;;26.13;27.47
4024;BME280;2026;51.002;13.668;2022-07-05T11:50:43;99417.13;;;26.92;25.29
4024;BME280;2026;51.002;13.668;2022-07-05T11:55:53;99405.56;;;25.96;28.04
4024;BME280;2026;51.002;13.668;2022-07-05T12:00:56;99396.88;;;27.71;27.66
4024;BME280;2026;51.002;13.668;2022-07-05T12:06:09;99395.69;;;24.31;28.95
4024;BME280;2026;51.002;13.668;2022-07-05T12:11:14;99398.91;;;25.50;29.93
4024;BME280;2026;51.002;13.668;2022-07-05T12:16:35;99388.09;;;25.85;27.73
4024;BME280;2026;51.002;13.668;2022-07-05T12:21:38;99379.41;;;27.35;26.24
4024;BME280;2026;51.002;13.668;2022-07-05T12:26:42;99391.91;;;26.02;28.45
4024;BME280;2026;51.002;13.668;2022-07-05T12:31:59;99381.69;;;27.79;25.74
4024;BME280;2026;51.002;13.668;2022-07-05T12:37:03;99396.03;;;25.55;27.08
4024;BME280;2026;51.002;13.668;2022-07-05T12:42:08;99398.09;;;25.67;26.73
4024;BME280;2026;51.002;13.668;2022-07-05T12:47:11;99396.78;;;25.20;28.17
4024;BME280;2026;51.002;13.668;2022-07-05T12:52:14;99382.13;;;25.62;27.55
4024;BME280;2026;51.002;13.668;2022-07-05T12:57:18;99393.41;;;24.79;27.39
4024;BME280;2026;51.002;13.668;2022-07-05T13:02:40;99385.34;;;24.88;28.48
4024;BME280;2026;51.002;13.668;2022-07-05T13:07:44;99377.13;;;24.93;27.44
4024;BME280;2026;51.002;13.668;2022-07-05T13:12:57;99371.13;;;25.14;27.24
4024;BME280;2026;51.002;13.668;2022-07-05T13:18:00;99365.56;;;26.55;25.80
4024;BME280;2026;51.002;13.668;2022-07-05T13:23:03;99379.88;;;25.20;26.51
4024;BME280;2026;51.002;13.668;2022-07-05T13:28:08;99371.63;;;24.58;27.87
4024;BME280;2026;51.002;13.668;2022-07-05T13:33:11;99361.69;;;25.34;26.71
4024;BME280;2026;51.002;13.668;2022-07-05T13:38:14;99364.78;;;26.16;26.06
4024;BME280;2026;51.002;13.668;2022-07-05T13:43:18;99355.59;;;26.08;26.63
4024;BME280;2026;51.002;13.668;2022-07-05T13:48:21;99363.22;;;24.91;28.03
4024;BME280;2026;51.002;13.668;2022-07-05T13:53:24;99353.44;;;25.66;26.23
4024;BME280;2026;51.002;13.668;2022-07-05T13:58:28;99348.88;;;26.23;26.56
4024;BME280;2026;51.002;13.668;2022-07-05T14:03:31;99354.09;;;26.28;25.24
4024;BME280;2026;51.002;13.668;2022-07-05T14:08:34;99360.00;;;24.80;26.74
4024;BME280;2026;51.002;13.668;2022-07-05T14:13:39;99359.13;;;25.47;27.18
4024;BME280;2026;51.002;13.668;2022-07-05T14:18:43;99351.56;;;26.92;25.90
4024;BME280;2026;51.002;13.668;2022-07-05T14:23:46;99353.84;;;26.12;26.73
4024;BME280;2026;51.002;13.668;2022-07-05T14:28:50;99339.00;;;26.36;26.66
4024;BME280;2026;51.002;13.668;2022-07-05T14:33:53;99352.59;;;26.01;25.65
4024;BME280;2026;51.002;13.668;2022-07-05T14:38:56;99334.22;;;26.33;26.97
4024;BME280;2026;51.002;13.668;2022-07-05T14:44:02;99343.03;;;27.11;25.02
4024;BME280;2026;51.002;13.668;2022-07-05T14:49:05;99335.84;;;26.64;25.84
4024;BME280;2026;51.002;13.668;2022-07-05T14:54:08;99325.22;;;26.89;24.97
4024;BME280;2026;51.002;13.668;2022-07-05T14:59:13;99329.66;;;27.36;24.33
4024;BME280;2026;51.002;13.668;2022-07-05T15:04:16;99316.41;;;27.77;24.97
4024;BME280;2026;51.002;13.668;2022-07-05T15:09:19;99315.34;;;27.36;25.32
4024;BME280;2026;51.002;13.668;2022-07-05T15:14:23;99317.72;;;27.71;24.26
4024;BME280;2026;51.002;13.668;2022-07-05T15:19:28;99327.13;;;25.54;25.35
4024;BME280;2026;51.002;13.668;2022-07-05T15:24:32;99317.72;;;26.43;25.26
4024;BME280;2026;51.002;13.668;2022-07-05T15:29:36;99327.28;;;25.49;26.05
4024;BME280;2026;51.002;13.668;2022-07-05T15:34:39;99321.59;;;25.06;26.73
4024;BME280;2026;51.002;13.668;2022-07-05T15:39:42;99310.28;;;26.01;26.11
4024;BME280;2026;51.002;13.668;2022-07-05T15:44:47;99316.09;;;26.42;25.12
4024;BME280;2026;51.002;13.668;2022-07-05T15:50:03;99311.75;;;26.29;26.06
4024;BME280;2026;51.002;13.668;2022-07-05T15:55:07;99313.38;;;26.51;25.54
4024;BME280;2026;51.002;13.668;2022-07-05T16:00:13;99310.38;;;26.14;26.81
4024;BME280;2026;51.002;13.668;2022-07-05T16:05:16;99312.44;;;25.25;27.40
4024;BME280;2026;51.002;13.668;2022-07-05T16:10:19;99308.63;;;25.44;27.85
4024;BME280;2026;51.002;13.668;2022-07-05T16:15:41;99304.78;;;25.71;27.04
4024;BME280;2026;51.002;13.668;2022-07-05T16:21:07;99291.13;;;26.63;26.05
4024;BME280;2026;51.002;13.668;2022-07-05T16:26:13;99303.56;;;25.24;27.41
4024;BME280;2026;51.002;13.668;2022-07-05T16:31:18;99302.22;;;24.69;27.60
4024;BME280;2026;51.002;13.668;2022-07-05T16:36:23;99291.50;;;25.48;27.00
4024;BME280;2026;51.002;13.668;2022-07-05T16:41:26;99288.19;;;25.16;27.64
4024;BME280;2026;51.002;13.668;2022-07-05T16:46:30;99294.34;;;24.64;28.42
4024;BME280;2026;51.002;13.668;2022-07-05T16:51:34;99283.91;;;25.06;28.76
4024;BME280;2026;51.002;13.668;2022-07-05T16:56:37;99294.34;;;24.81;28.59
4024;BME280;2026;51.002;13.668;2022-07-05T17:01:42;99287.53;;;24.17;29.14
4024;BME280;2026;51.002;13.668;2022-07-05T17:06:45;99291.88;;;24.44;28.20
4024;BME280;2026;51.002;13.668;2022-07-05T17:11:48;99285.16;;;24.65;27.19
4024;BME280;2026;51.002;13.668;2022-07-05T17:16:52;99284.34;;;24.15;27.14
4024;BME280;2026;51.002;13.668;2022-07-05T17:21:55;99282.16;;;24.17;26.93
4024;BME280;2026;51.002;13.668;2022-07-05T17:26:58;99284.66;;;23.82;27.69
4024;BME280;2026;51.002;13.668;2022-07-05T17:32:03;99275.28;;;23.70;28.30
4024;BME280;2026;51.002;13.668;2022-07-05T17:37:06;99275.56;;;23.91;28.54
4024;BME280;2026;51.002;13.668;2022-07-05T17:42:09;99277.31;;;23.73;28.65
4024;BME280;2026;51.002;13.668;2022-07-05T17:47:14;99279.00;;;23.60;29.72
4024;BME280;2026;51.002;13.668;2022-07-05T17:52:17;99276.84;;;23.71;30.01
4024;BME280;2026;51.002;13.668;2022-07-05T17:57:20;99281.63;;;23.51;30.28
4024;BME280;2026;51.002;13.668;2022-07-05T18:02:25;99294.84;;;23.25;30.60
4024;BME280;2026;51.002;13.668;2022-07-05T18:07:28;99298.34;;;23.26;31.00
4024;BME280;2026;51.002;13.668;2022-07-05T18:12:31;99306.63;;;23.15;31.51
4024;BME280;2026;51.002;13.668;2022-07-05T18:17:36;99317.59;;;23.28;31.81
4024;BME280;2026;51.002;13.668;2022-07-05T18:22:39;99320.63;;;22.98;32.56
4024;BME280;2026;51.002;13.668;2022-07-05T18:27:42;99319.28;;;22.73;33.28
4024;BME280;2026;51.002;13.668;2022-07-05T18:32:47;99315.13;;;22.52;34.00
4024;BME280;2026;51.002;13.668;2022-07-05T18:37:50;99324.06;;;22.48;34.24
4024;BME280;2026;51.002;13.668;2022-07-05T18:42:53;99323.66;;;22.40;34.36
4024;BME280;2026;51.002;13.668;2022-07-05T18:47:57;99324.28;;;22.51;34.12
4024;BME280;2026;51.002;13.668;2022-07-05T18:53:00;99331.91;;;22.30;34.98
4024;BME280;2026;51.002;13.668;2022-07-05T18:58:03;99333.34;;;22.22;35.29
4024;BME280;2026;51.002;13.668;2022-07-05T19:03:08;99340.94;;;22.34;34.90
4024;BME280;2026;51.002;13.668;2022-07-05T19:08:11;99338.09;;;22.11;35.18
4024;BME280;2026;51.002;13.668;2022-07-05T19:13:31;99345.44;;;22.06;35.80
4024;BME280;2026;51.002;13.668;2022-07-05T19:18:45;99348.16;;;21.86;35.93
4024;BME280;2026;51.002;13.668;2022-07-05T19:23:48;99345.50;;;22.00;36.04
4024;BME280;2026;51.002;13.668;2022-07-05T19:28:51;99350.66;;;21.97;35.93
4024;BME280;2026;51.002;13.668;2022-07-05T19:33:55;99368.00;;;21.85;36.34
4024;BME280;2026;51.002;13.668;2022-07-05T19:38:58;99362.34;;;21.87;36.59
4024;BME280;2026;51.002;13.668;2022-07-05T19:44:02;99388.03;;;21.88;37.43
4024;BME280;2026;51.002;13.668;2022-07-05T19:49:06;99388.22;;;21.58;38.85
4024;BME280;2026;51.002;13.668;2022-07-05T19:54:09;99399.16;;;21.38;38.30
4024;BME280;2026;51.002;13.668;2022-07-05T19:59:12;99400.38;;;21.45;38.06
4024;BME280;2026;51.002;13.668;2022-07-05T20:04:17;99402.28;;;21.26;38.42
4024;BME280;2026;51.002;13.668;2022-07-05T20:09:20;99406.38;;;21.37;38.07
4024;BME280;2026;51.002;13.668;2022-07-05T20:14:23;99399.94;;;20.75;39.32
4024;BME280;2026;51.002;13.668;2022-07-05T20:19:27;99415.22;;;20.94;39.48
4024;BME280;2026;51.002;13.668;2022-07-05T20:24:30;99419.03;;;20.58;40.13
4024;BME280;2026;51.002;13.668;2022-07-05T20:29:33;99423.88;;;20.56;40.29
4024;BME280;2026;51.002;13.668;2022-07-05T20:34:38;99422.97;;;20.66;40.44
4024;BME280;2026;51.002;13.668;2022-07-05T20:39:43;99429.69;;;20.34;41.22
4024;BME280;2026;51.002;13.668;2022-07-05T20:44:48;99434.28;;;20.58;40.87
4024;BME280;2026;51.002;13.668;2022-07-05T20:49:52;99432.13;;;20.60;40.80
4024;BME280;2026;51.002;13.668;2022-07-05T20:54:55;99435.31;;;20.62;40.96
4024;BME280;2026;51.002;13.668;2022-07-05T21:00:06;99436.91;;;20.63;41.05
4024;BME280;2026;51.002;13.668;2022-07-05T21:05:11;99429.50;;;20.55;41.41
4024;BME280;2026;51.002;13.668;2022-07-05T21:10:15;99434.69;;;20.11;41.89
4024;BME280;2026;51.002;13.668;2022-07-05T21:15:18;99446.53;;;20.29;42.44
4024;BME280;2026;51.002;13.668;2022-07-05T21:20:23;99451.75;;;20.45;44.01
4024;BME280;2026;51.002;13.668;2022-07-05T21:25:26;99469.34;;;20.16;41.92
4024;BME280;2026;51.002;13.668;2022-07-05T21:30:29;99464.00;;;20.16;42.60
4024;BME280;2026;51.002;13.668;2022-07-05T21:35:33;99450.34;;;20.23;42.06
4024;BME280;2026;51.002;13.668;2022-07-05T21:40:36;99446.84;;;20.28;41.79
4024;BME280;2026;51.002;13.668;2022-07-05T21:45:39;99457.53;;;20.28;41.92
4024;BME280;2026;51.002;13.668;2022-07-05T21:50:44;99461.75;;;20.34;42.95
4024;BME280;2026;51.002;13.668;2022-07-05T21:55:48;99459.69;;;20.26;42.89
4024;BME280;2026;51.002;13.668;2022-07-05T22:00:51;99458.25;;;20.04;43.93
4024;BME280;2026;51.002;13.668;2022-07-05T22:06:13;99450.81;;;19.95;44.09
4024;BME280;2026;51.002;13.668;2022-07-05T22:23:33;99440.16;;;19.45;45.53
4024;BME280;2026;51.002;13.668;2022-07-05T22:35:29;99479.97;;;19.16;45.83
4024;BME280;2026;51.002;13.668;2022-07-05T22:46:29;99546.13;;;18.67;48.45
4024;BME280;2026;51.002;13.668;2022-07-05T22:58:25;99595.34;;;18.33;47.97
4024;BME280;2026;51.002;13.668;2022-07-05T23:03:28;99594.97;;;17.93;50.72
4024;BME280;2026;51.002;13.668;2022-07-05T23:08:31;99618.03;;;17.77;52.91
4024;BME280;2026;51.002;13.668;2022-07-05T23:13:35;99632.41;;;17.33;57.23
4024;BME280;2026;51.002;13.668;2022-07-05T23:18:38;99644.59;;;16.96;61.06
4024;BME280;2026;51.002;13.668;2022-07-05T23:23:41;99644.09;;;16.72;62.72
4024;BME280;2026;51.002;13.668;2022-07-05T23:29:06;99637.16;;;16.43;64.34
4024;BME280;2026;51.002;13.668;2022-07-05T23:34:09;99619.06;;;15.34;68.61
4024;BME280;2026;51.002;13.668;2022-07-05T23:39:12;99625.69;;;15.53;70.17
4024;BME280;2026;51.002;13.668;2022-07-05T23:44:17;99656.66;;;16.04;68.04
4024;BME280;2026;51.002;13.668;2022-07-05T23:49:20;99655.09;;;15.52;68.92
4024;BME280;2026;51.002;13.668;2022-07-05T23:54:23;99631.41;;;16.02;68.88
4024;BME280;2026;51.002;13.668;2022-07-05T23:59:27;99620.47;;;16.20;68.00
